This is the latest recevied weather packets stored in our database for station/object EA5FOG-11. If no packets are shown the sender has not sent any weather packets the latest 1 day(s).
| Time | Temp. | Humidity | Pressure | Rain* | Wind** | Luminosity | Snow |
|---|---|---|---|---|---|---|---|
| 1778110902 | 16.11° C | 55% | 953.6 hPa | - | - | - | - |
| 1778110001 | 16.11° C | 55% | 953.8 hPa | - | - | - | - |
| 1778106398 | 16.67° C | 53% | 954 hPa | - | - | - | - |
| 1778105497 | 16.67° C | 53% | 954.1 hPa | - | - | - | - |
| 1778101894 | 16.67° C | 51% | 953.9 hPa | - | - | - | - |
| 1778098291 | 16.67° C | 49% | 953.4 hPa | - | - | - | - |
| 1778097390 | 17.22° C | 48% | 953.2 hPa | - | - | - | - |
| 1778096489 | 17.22° C | 47% | 953.1 hPa | - | - | - | - |
| 1778093806 | 18.33° C | 44% | 952.7 hPa | - | - | - | - |
| 1778092905 | 18.33° C | 44% | 952.5 hPa | - | - | - | - |
| 1778092004 | 18.89° C | 43% | 952.4 hPa | - | - | - | - |
| 1778089302 | 20° C | 43% | 952 hPa | - | - | - | - |
| 1778088401 | 20.56° C | 42% | 951.7 hPa | - | - | - | - |
| 1778087500 | 21.11° C | 41% | 951.8 hPa | - | - | - | - |
| 1778084798 | 25.56° C | 35% | 951.4 hPa | - | - | - | - |
| 1778083897 | 23.89° C | 36% | 951.4 hPa | - | - | - | - |
| 1778080294 | 28.33° C | 28% | 951.2 hPa | - | - | - | - |
| 1778079393 | 28.89° C | 27% | 951.3 hPa | - | - | - | - |
| 1778075790 | 31.67° C | 25% | 951.7 hPa | - | - | - | - |
| 1778072206 | 30° C | 26% | 951.7 hPa | - | - | - | - |
| 1778071305 | 28.33° C | 26% | 951.9 hPa | - | - | - | - |
| 1778067702 | 30° C | 26% | 952.4 hPa | - | - | - | - |
| 1778062297 | 30° C | 26% | 952.9 hPa | - | - | - | - |
| 1778061396 | 30.56° C | 26% | 952.8 hPa | - | - | - | - |
| 1778059595 | 31.11° C | 27% | 952.9 hPa | - | - | - | - |
* Rain since midnight (hover to see other rain measurements)
** Current wind speed in m/s (hover to see current wind gust speed)